createdAt,value
2023-03-29T00:01:36.172Z,99678.31
2023-03-29T00:04:04.758Z,99692.72
2023-03-29T00:06:31.545Z,99689.28
2023-03-29T00:08:57.900Z,99677.00
2023-03-29T00:11:25.289Z,99661.47
2023-03-29T00:13:52.131Z,99684.50
2023-03-29T00:16:18.931Z,99666.59
2023-03-29T00:18:45.443Z,99674.63
2023-03-29T00:21:11.918Z,99644.50
2023-03-29T00:23:38.354Z,99666.13
2023-03-29T00:26:07.178Z,99663.91
2023-03-29T00:28:34.406Z,99667.13
2023-03-29T00:31:11.717Z,99661.97
2023-03-29T00:33:39.042Z,99668.75
2023-03-29T00:36:06.663Z,99665.25
2023-03-29T00:38:33.310Z,99656.75
2023-03-29T00:41:00.037Z,99647.72
2023-03-29T00:43:26.702Z,99638.88
2023-03-29T00:45:53.595Z,99643.75
2023-03-29T00:48:23.074Z,99651.78
2023-03-29T00:50:54.301Z,99645.00
2023-03-29T00:53:25.916Z,99645.16
2023-03-29T00:56:09.401Z,99627.25
2023-03-29T00:58:47.043Z,99630.91
2023-03-29T01:01:23.786Z,99621.53
2023-03-29T01:03:54.801Z,99618.03
2023-03-29T01:06:24.990Z,99604.22
2023-03-29T01:08:56.177Z,99610.16
2023-03-29T01:11:27.530Z,99610.16
2023-03-29T01:14:04.180Z,99595.47
2023-03-29T01:16:33.388Z,99579.19
2023-03-29T01:19:00.099Z,99574.03
2023-03-29T01:21:33.221Z,99570.44
2023-03-29T01:24:10.254Z,99576.31
2023-03-29T01:27:12.131Z,99578.75
2023-03-29T01:29:43.663Z,99554.94
2023-03-29T01:32:16.253Z,99562.25
2023-03-29T01:34:46.476Z,99565.53
2023-03-29T01:37:25.019Z,99555.94
2023-03-29T01:39:52.187Z,99542.94
2023-03-29T01:42:32.261Z,99544.78
2023-03-29T01:45:22.696Z,99545.56
2023-03-29T01:47:58.434Z,99541.28
2023-03-29T01:50:37.032Z,99538.69
2023-03-29T01:53:10.155Z,99536.97
2023-03-29T01:55:41.463Z,99521.72
2023-03-29T01:58:11.699Z,99522.09
2023-03-29T02:00:39.314Z,99514.13
2023-03-29T02:03:08.984Z,99527.03
2023-03-29T02:05:37.874Z,99522.50
2023-03-29T02:08:07.677Z,99503.41
2023-03-29T02:10:35.718Z,99505.47
2023-03-29T02:13:02.245Z,99512.44
2023-03-29T02:15:28.701Z,99501.88
2023-03-29T02:17:55.166Z,99491.81
2023-03-29T02:20:24.143Z,99501.31
2023-03-29T02:23:16.548Z,99504.66
2023-03-29T02:25:44.281Z,99500.09
2023-03-29T02:28:10.623Z,99481.38
2023-03-29T02:31:01.667Z,99494.00
2023-03-29T02:33:52.632Z,99495.53
2023-03-29T02:36:24.091Z,99495.94
2023-03-29T02:38:52.671Z,99486.09
2023-03-29T02:41:20.066Z,99469.75
2023-03-29T02:43:47.961Z,99462.78
2023-03-29T02:46:16.569Z,99475.66
2023-03-29T02:48:46.626Z,99485.28
2023-03-29T02:51:20.438Z,99470.19
2023-03-29T02:54:03.242Z,99477.03
2023-03-29T02:56:29.900Z,99468.03
2023-03-29T02:58:56.591Z,99467.78
2023-03-29T03:01:23.267Z,99475.13
2023-03-29T03:03:49.785Z,99452.81
2023-03-29T03:06:16.609Z,99463.91
2023-03-29T03:08:42.912Z,99457.03
2023-03-29T03:11:09.298Z,99441.22
2023-03-29T03:13:35.682Z,99436.72
2023-03-29T03:16:02.263Z,99452.63
2023-03-29T03:18:28.983Z,99437.56
2023-03-29T03:20:57.027Z,99447.22
2023-03-29T03:23:23.398Z,99441.72
2023-03-29T03:25:51.222Z,99424.97
2023-03-29T03:28:17.532Z,99429.03
2023-03-29T03:30:43.856Z,99430.75
2023-03-29T03:33:10.324Z,99427.78
2023-03-29T03:35:36.775Z,99430.31
2023-03-29T03:38:03.093Z,99427.78
2023-03-29T03:40:29.758Z,99423.56
2023-03-29T03:42:56.181Z,99423.63
2023-03-29T03:45:22.540Z,99432.19
2023-03-29T03:47:50.750Z,99420.53
2023-03-29T03:50:17.987Z,99438.31
2023-03-29T03:52:44.590Z,99415.31
2023-03-29T03:55:10.911Z,99422.91
2023-03-29T03:57:37.498Z,99399.59
2023-03-29T04:00:06.729Z,99414.91
2023-03-29T04:02:33.195Z,99414.22
2023-03-29T04:04:59.652Z,99410.72
2023-03-29T04:07:25.957Z,99421.75
2023-03-29T04:09:52.781Z,99411.44
2023-03-29T04:12:19.151Z,99400.47
2023-03-29T04:14:45.504Z,99418.28
2023-03-29T04:17:11.902Z,99409.69
2023-03-29T04:19:38.615Z,99418.22
2023-03-29T04:22:04.911Z,99395.00
2023-03-29T04:24:31.265Z,99387.25
2023-03-29T04:26:57.796Z,99388.75
2023-03-29T04:29:24.134Z,99402.59
2023-03-29T04:31:50.576Z,99396.66
2023-03-29T04:34:17.028Z,99401.81
2023-03-29T04:36:43.476Z,99409.56
2023-03-29T04:39:09.889Z,99391.56
2023-03-29T04:41:36.280Z,99398.03
2023-03-29T04:44:02.689Z,99385.16
2023-03-29T04:46:29.764Z,99409.97
2023-03-29T04:48:56.210Z,99372.94
2023-03-29T04:51:22.656Z,99381.81
2023-03-29T04:53:51.820Z,99382.78
2023-03-29T04:56:18.283Z,99373.13
2023-03-29T04:58:44.720Z,99374.72
2023-03-29T05:01:11.644Z,99371.22
2023-03-29T05:03:39.352Z,99369.50
2023-03-29T05:06:07.526Z,99374.97
2023-03-29T05:08:35.347Z,99352.22
2023-03-29T05:11:02.018Z,99354.22
2023-03-29T05:13:28.543Z,99351.63
2023-03-29T05:15:54.970Z,99374.31
2023-03-29T05:18:21.360Z,99367.91
2023-03-29T05:20:48.102Z,99353.16
2023-03-29T05:23:14.702Z,99371.50
2023-03-29T05:25:41.115Z,99342.97
2023-03-29T05:28:07.948Z,99350.38
2023-03-29T05:30:34.272Z,99345.78
2023-03-29T05:33:02.745Z,99366.22
2023-03-29T05:35:29.318Z,99362.72
2023-03-29T05:37:55.753Z,99343.91
2023-03-29T05:40:23.660Z,99345.09
2023-03-29T05:42:49.981Z,99343.06
2023-03-29T05:45:16.446Z,99340.19
2023-03-29T05:47:42.915Z,99333.88
2023-03-29T05:50:10.386Z,99346.41
2023-03-29T05:52:36.942Z,99338.28
2023-03-29T05:55:05.449Z,99332.91
2023-03-29T05:57:32.177Z,99331.28
2023-03-29T05:59:59.027Z,99335.38
2023-03-29T06:02:25.581Z,99328.59
2023-03-29T06:04:52.738Z,99317.78
2023-03-29T06:07:19.299Z,99345.72
2023-03-29T06:09:45.705Z,99341.28
2023-03-29T06:12:12.083Z,99331.84
2023-03-29T06:14:38.523Z,99335.66
2023-03-29T06:17:05.096Z,99332.41
2023-03-29T06:19:31.635Z,99339.91
2023-03-29T06:21:58.112Z,99344.19
2023-03-29T06:24:24.505Z,99343.75
2023-03-29T06:26:50.993Z,99343.84
2023-03-29T06:29:17.348Z,99335.50
2023-03-29T06:31:44.160Z,99330.28
2023-03-29T06:34:10.585Z,99343.50
2023-03-29T06:36:36.982Z,99332.31
2023-03-29T06:39:03.989Z,99335.94
2023-03-29T06:41:30.360Z,99330.66
2023-03-29T06:43:57.616Z,99319.31
2023-03-29T06:46:24.207Z,99328.78
2023-03-29T06:48:51.630Z,99318.97
2023-03-29T06:51:23.495Z,99325.38
2023-03-29T06:53:50.396Z,99322.97
2023-03-29T06:56:16.926Z,99327.38
2023-03-29T06:58:43.792Z,99333.28
2023-03-29T07:01:11.183Z,99315.38
2023-03-29T07:03:37.793Z,99324.66
2023-03-29T07:06:05.076Z,99311.97
2023-03-29T07:08:31.899Z,99311.44
2023-03-29T07:10:58.835Z,99328.28
2023-03-29T07:13:25.796Z,99329.84
2023-03-29T07:15:52.640Z,99341.16
2023-03-29T07:18:19.384Z,99298.66
2023-03-29T07:20:46.275Z,99329.75
2023-03-29T07:23:12.872Z,99330.50
2023-03-29T07:25:39.240Z,99315.38
2023-03-29T07:28:05.609Z,99312.66
2023-03-29T07:30:35.156Z,99310.19
2023-03-29T07:33:04.514Z,99327.97
2023-03-29T07:35:31.217Z,99345.22
2023-03-29T07:37:57.608Z,99324.13
2023-03-29T07:40:24.728Z,99335.53
2023-03-29T07:42:53.504Z,99347.81
2023-03-29T07:45:28.858Z,99344.31
2023-03-29T07:47:59.955Z,99363.56
2023-03-29T07:50:28.170Z,99342.66
2023-03-29T07:52:54.850Z,99357.88
2023-03-29T07:55:22.067Z,99350.84
2023-03-29T07:57:49.636Z,99345.25
2023-03-29T08:00:17.091Z,99326.31
2023-03-29T08:02:48.149Z,99353.13
2023-03-29T08:05:19.004Z,99357.63
2023-03-29T08:07:50.060Z,99358.72
2023-03-29T08:10:21.449Z,99356.34
2023-03-29T08:12:49.477Z,99342.44
2023-03-29T08:15:16.371Z,99350.19
2023-03-29T08:17:46.347Z,99318.25
2023-03-29T08:20:15.332Z,99338.81
2023-03-29T08:22:42.015Z,99304.31
2023-03-29T08:25:13.938Z,99321.06
2023-03-29T08:27:40.521Z,99318.38
2023-03-29T08:30:10.916Z,99294.25
2023-03-29T08:32:37.953Z,99312.22
2023-03-29T08:35:09.916Z,99298.69
2023-03-29T08:37:37.462Z,99322.06
2023-03-29T08:40:05.272Z,99320.66
2023-03-29T08:42:56.662Z,99318.31
2023-03-29T08:45:52.045Z,99319.91
2023-03-29T08:48:26.161Z,99319.53
2023-03-29T08:51:06.144Z,99314.66
2023-03-29T08:53:52.520Z,99300.56
2023-03-29T08:56:24.179Z,99304.88
2023-03-29T08:58:52.249Z,99301.47
2023-03-29T09:01:20.408Z,99319.13
2023-03-29T09:04:03.897Z,99309.16
2023-03-29T09:06:30.551Z,99306.53
2023-03-29T09:08:57.374Z,99310.81
2023-03-29T09:11:24.057Z,99317.53
2023-03-29T09:13:56.969Z,99293.72
2023-03-29T09:16:44.706Z,99303.13
2023-03-29T09:19:44.748Z,99313.03
2023-03-29T09:22:39.785Z,99311.22
2023-03-29T09:25:26.651Z,99326.22
2023-03-29T09:28:13.597Z,99311.13
2023-03-29T09:30:42.190Z,99316.41
2023-03-29T09:33:32.773Z,99308.84
2023-03-29T09:36:21.888Z,99317.00
2023-03-29T09:38:49.940Z,99311.06
2023-03-29T09:41:38.010Z,99310.31
2023-03-29T09:44:24.207Z,99316.94
2023-03-29T09:47:06.232Z,99298.59
2023-03-29T09:49:38.308Z,99306.63
2023-03-29T09:52:11.528Z,99288.72
2023-03-29T09:54:38.377Z,99289.19
2023-03-29T09:57:04.925Z,99286.78
2023-03-29T09:59:31.590Z,99288.38
2023-03-29T10:02:11.086Z,99291.03
2023-03-29T10:04:37.749Z,99297.66
2023-03-29T10:07:06.432Z,99324.84
2023-03-29T10:09:33.285Z,99308.25
2023-03-29T10:12:01.721Z,99318.78
2023-03-29T10:14:36.404Z,99306.50
2023-03-29T10:17:13.850Z,99293.13
2023-03-29T10:19:49.735Z,99306.44
2023-03-29T10:22:26.203Z,99299.00
2023-03-29T10:24:54.994Z,99297.75
2023-03-29T10:27:28.136Z,99283.84
2023-03-29T10:29:56.801Z,99274.44
2023-03-29T10:32:27.292Z,99289.97
2023-03-29T10:34:55.300Z,99300.88
2023-03-29T10:37:22.061Z,99280.25
2023-03-29T10:39:50.680Z,99248.41
2023-03-29T10:42:20.015Z,99281.34
2023-03-29T10:44:55.180Z,99283.63
2023-03-29T10:47:23.442Z,99271.13
2023-03-29T10:49:57.383Z,99283.19
2023-03-29T10:52:24.545Z,99264.31
2023-03-29T10:54:54.912Z,99253.38
2023-03-29T10:57:37.566Z,99279.72
2023-03-29T11:00:14.448Z,99281.59
2023-03-29T11:02:44.104Z,99293.13
2023-03-29T11:05:19.752Z,99292.50
2023-03-29T11:08:07.845Z,99287.22
2023-03-29T11:10:51.120Z,99291.16
2023-03-29T11:13:37.601Z,99284.88
2023-03-29T11:16:22.528Z,99271.25
2023-03-29T11:18:55.732Z,99278.50
2023-03-29T11:21:44.092Z,99256.78
2023-03-29T11:24:28.638Z,99256.19
2023-03-29T11:27:07.063Z,99250.19
2023-03-29T11:29:48.400Z,99220.28
2023-03-29T11:32:25.483Z,99264.28
2023-03-29T11:35:14.224Z,99243.13
2023-03-29T11:37:43.674Z,99264.59
2023-03-29T11:40:31.904Z,99265.31
2023-03-29T11:43:02.498Z,99248.38
2023-03-29T11:45:38.104Z,99248.78
2023-03-29T11:48:10.614Z,99252.97
2023-03-29T11:51:06.425Z,99253.66
2023-03-29T11:53:44.150Z,99237.34
2023-03-29T11:56:19.462Z,99255.31
2023-03-29T11:58:52.273Z,99237.56
2023-03-29T12:01:48.823Z,99253.81
2023-03-29T12:04:24.926Z,99257.41
2023-03-29T12:07:04.901Z,99244.91
2023-03-29T12:09:39.422Z,99248.84
2023-03-29T12:12:17.822Z,99235.31
2023-03-29T12:14:56.276Z,99219.09
2023-03-29T12:17:34.406Z,99220.31
2023-03-29T12:20:03.991Z,99224.06
2023-03-29T12:22:31.544Z,99188.22
2023-03-29T12:24:59.457Z,99192.78
2023-03-29T12:27:30.208Z,99215.81
2023-03-29T12:30:34.668Z,99213.34
2023-03-29T12:33:30.349Z,99204.63
2023-03-29T12:36:09.098Z,99219.09
2023-03-29T12:38:36.764Z,99207.56
2023-03-29T12:41:14.260Z,99190.69
2023-03-29T12:43:41.781Z,99198.31
2023-03-29T12:46:11.328Z,99198.13
2023-03-29T12:48:41.046Z,99195.94
2023-03-29T12:51:19.994Z,99198.44
2023-03-29T12:53:50.898Z,99189.16
2023-03-29T12:56:20.531Z,99210.88
2023-03-29T12:59:06.058Z,99203.59
2023-03-29T13:01:34.601Z,99179.78
2023-03-29T13:04:01.272Z,99199.97
2023-03-29T13:06:32.864Z,99200.72
2023-03-29T13:09:19.924Z,99184.53
2023-03-29T13:11:54.811Z,99192.66
2023-03-29T13:14:25.636Z,99178.44
2023-03-29T13:16:52.237Z,99165.34
2023-03-29T13:19:39.016Z,99184.09
2023-03-29T13:22:17.873Z,99162.94
2023-03-29T13:25:16.903Z,99170.00
2023-03-29T13:28:02.213Z,99186.41
2023-03-29T13:30:34.911Z,99174.31
2023-03-29T13:33:16.906Z,99181.88
2023-03-29T13:36:02.598Z,99177.81
2023-03-29T13:38:29.454Z,99173.03
2023-03-29T13:41:01.408Z,99177.41
2023-03-29T13:43:54.224Z,99168.59
2023-03-29T13:46:22.749Z,99151.84
2023-03-29T13:49:02.110Z,99136.66
2023-03-29T13:51:37.089Z,99136.97
2023-03-29T13:54:13.546Z,99158.41
2023-03-29T13:56:49.268Z,99163.03
2023-03-29T13:59:19.865Z,99145.94
2023-03-29T14:01:52.748Z,99129.50
2023-03-29T14:04:28.208Z,99131.38
2023-03-29T14:06:56.240Z,99149.91
2023-03-29T14:09:27.663Z,99132.16
2023-03-29T14:11:54.201Z,99149.00
2023-03-29T14:14:26.071Z,99118.13
2023-03-29T14:16:55.544Z,99125.19
2023-03-29T14:19:31.004Z,99121.78
2023-03-29T14:21:59.474Z,99113.38
2023-03-29T14:24:34.029Z,99127.09
2023-03-29T14:27:04.150Z,99115.53
2023-03-29T14:29:34.955Z,99125.72
2023-03-29T14:32:36.742Z,99111.41
2023-03-29T14:35:03.988Z,99116.59
2023-03-29T14:37:30.498Z,99109.34
2023-03-29T14:39:58.784Z,99104.19
2023-03-29T14:42:27.975Z,99098.13
2023-03-29T14:45:02.148Z,99116.72
2023-03-29T14:47:31.694Z,99094.59
2023-03-29T14:50:00.391Z,99099.16
2023-03-29T14:52:28.227Z,99096.50
2023-03-29T14:54:57.111Z,99106.69
2023-03-29T14:57:27.018Z,99101.53
2023-03-29T14:59:58.902Z,99083.81
2023-03-29T15:02:33.609Z,99071.56
2023-03-29T15:05:03.017Z,99087.06
2023-03-29T15:07:29.731Z,99083.66
2023-03-29T15:09:58.689Z,99083.03
2023-03-29T15:12:28.439Z,99084.66
2023-03-29T15:14:55.146Z,99069.44
2023-03-29T15:17:50.401Z,99078.94
2023-03-29T15:20:24.023Z,99074.41
2023-03-29T15:22:58.820Z,99080.75
2023-03-29T15:25:45.752Z,99064.03
2023-03-29T15:28:29.525Z,99086.97
2023-03-29T15:31:07.980Z,99071.34
2023-03-29T15:33:39.782Z,99069.19
2023-03-29T15:36:08.903Z,99066.41
2023-03-29T15:38:43.040Z,99072.31
2023-03-29T15:41:12.951Z,99063.28
2023-03-29T15:43:39.350Z,99059.31
2023-03-29T15:46:05.928Z,99064.59
2023-03-29T15:48:32.451Z,99055.28
2023-03-29T15:51:02.013Z,99042.22
2023-03-29T15:53:30.305Z,99042.13
2023-03-29T15:56:01.310Z,99056.81
2023-03-29T15:58:30.813Z,99054.09
2023-03-29T16:01:30.189Z,99061.44
2023-03-29T16:03:56.738Z,99036.00
2023-03-29T16:06:24.519Z,99042.34
2023-03-29T16:08:51.076Z,99032.47
2023-03-29T16:11:17.922Z,99039.59
2023-03-29T16:13:44.371Z,99032.22
2023-03-29T16:16:11.427Z,99032.88
2023-03-29T16:18:37.970Z,99014.72
2023-03-29T16:21:04.647Z,99021.19
2023-03-29T16:23:31.039Z,99016.97
2023-03-29T16:25:57.392Z,99021.72
2023-03-29T16:28:23.732Z,99022.75
2023-03-29T16:30:50.329Z,99027.53
2023-03-29T16:33:16.740Z,99041.94
2023-03-29T16:35:43.274Z,99014.75
2023-03-29T16:38:09.695Z,99021.75
2023-03-29T16:40:36.519Z,99019.78
2023-03-29T16:43:03.336Z,99025.75
2023-03-29T16:45:29.806Z,99015.78
2023-03-29T16:47:56.561Z,99004.25
2023-03-29T16:50:23.140Z,99028.31
2023-03-29T16:52:49.818Z,99025.25
2023-03-29T16:55:16.254Z,99022.59
2023-03-29T16:57:42.638Z,99022.28
2023-03-29T17:00:10.500Z,99019.91
2023-03-29T17:02:37.499Z,99030.03
2023-03-29T17:05:04.137Z,99026.63
2023-03-29T17:07:30.530Z,99007.81
2023-03-29T17:09:56.903Z,99027.31
2023-03-29T17:12:23.645Z,99016.22
2023-03-29T17:14:49.996Z,99025.97
2023-03-29T17:17:16.514Z,99035.88
2023-03-29T17:19:42.909Z,99025.06
2023-03-29T17:22:09.282Z,99034.47
2023-03-29T17:24:35.675Z,99023.09
2023-03-29T17:27:02.036Z,99027.34
2023-03-29T17:29:28.356Z,99018.63
2023-03-29T17:31:55.029Z,99024.56
2023-03-29T17:34:22.615Z,99020.16
2023-03-29T17:36:49.256Z,99017.88
2023-03-29T17:39:15.731Z,99015.34
2023-03-29T17:41:42.383Z,99019.44
2023-03-29T17:44:09.104Z,99020.88
2023-03-29T17:46:35.685Z,99014.28
2023-03-29T17:49:02.032Z,99006.09
2023-03-29T17:51:28.383Z,99020.09
2023-03-29T17:53:54.726Z,99005.47
2023-03-29T17:56:22.216Z,99001.94
2023-03-29T17:58:49.661Z,98994.38
2023-03-29T18:01:17.760Z,99003.44
2023-03-29T18:03:44.163Z,99011.13
2023-03-29T18:06:10.518Z,98998.28
2023-03-29T18:08:37.021Z,98982.31
2023-03-29T18:11:08.077Z,98971.53
2023-03-29T18:13:34.436Z,98987.78
2023-03-29T18:16:01.430Z,98977.94
2023-03-29T18:18:27.998Z,98968.44
2023-03-29T18:20:54.379Z,98988.25
2023-03-29T18:23:20.846Z,98995.09
2023-03-29T18:25:47.269Z,98981.16
2023-03-29T18:28:13.672Z,98958.50
2023-03-29T18:30:40.068Z,98992.81
2023-03-29T18:33:06.529Z,98970.97
2023-03-29T18:35:33.057Z,98960.41
2023-03-29T18:37:59.538Z,98964.59
2023-03-29T18:40:25.904Z,98983.66
2023-03-29T18:42:52.295Z,98963.16
2023-03-29T18:45:18.820Z,98974.09
2023-03-29T18:47:45.271Z,98959.47
2023-03-29T18:50:11.737Z,98971.09
2023-03-29T18:52:38.051Z,98980.09
2023-03-29T18:55:05.503Z,98978.41
2023-03-29T18:57:31.981Z,98970.38
2023-03-29T18:59:58.373Z,98961.44
2023-03-29T19:02:24.801Z,98944.19
2023-03-29T19:04:51.236Z,98940.03
2023-03-29T19:07:17.548Z,98954.19
2023-03-29T19:09:43.927Z,98925.56
2023-03-29T19:12:10.376Z,98944.63
2023-03-29T19:14:36.775Z,98932.16
2023-03-29T19:17:03.161Z,98951.53
2023-03-29T19:19:29.765Z,98939.03
2023-03-29T19:21:57.617Z,98937.56
2023-03-29T19:24:25.514Z,98926.69
2023-03-29T19:26:51.871Z,98942.03
2023-03-29T19:29:18.440Z,98924.16
2023-03-29T19:31:45.071Z,98936.00
2023-03-29T19:34:11.546Z,98924.97
2023-03-29T19:36:38.586Z,98958.16
2023-03-29T19:39:05.445Z,98915.72
2023-03-29T19:41:31.838Z,98918.13
2023-03-29T19:43:58.181Z,98908.41
2023-03-29T19:46:24.607Z,98928.34
2023-03-29T19:48:50.969Z,98895.56
2023-03-29T19:51:17.318Z,98904.44
2023-03-29T19:53:43.885Z,98888.41
2023-03-29T19:56:10.286Z,98925.44
2023-03-29T19:58:36.649Z,98909.72
2023-03-29T20:01:03.490Z,98915.63
2023-03-29T20:03:30.045Z,98917.75
2023-03-29T20:05:57.001Z,98916.50
2023-03-29T20:08:24.203Z,98907.22
2023-03-29T20:11:03.818Z,98922.19
2023-03-29T20:13:38.167Z,98922.53
2023-03-29T20:16:07.636Z,98914.66
2023-03-29T20:18:34.102Z,98886.28
2023-03-29T20:21:00.919Z,98885.06
2023-03-29T20:23:27.566Z,98892.63
2023-03-29T20:25:54.246Z,98900.03
2023-03-29T20:28:20.942Z,98896.47
2023-03-29T20:30:47.305Z,98886.44
2023-03-29T20:33:13.693Z,98866.53
2023-03-29T20:35:40.075Z,98867.94
2023-03-29T20:38:06.506Z,98848.13
2023-03-29T20:40:34.239Z,98859.06
2023-03-29T20:43:00.695Z,98857.44
2023-03-29T20:45:27.192Z,98849.56
2023-03-29T20:47:53.552Z,98863.06
2023-03-29T20:50:20.013Z,98858.09
2023-03-29T20:52:46.516Z,98866.78
2023-03-29T20:55:13.037Z,98852.84
2023-03-29T20:57:39.474Z,98863.44
2023-03-29T21:00:06.903Z,98859.38
2023-03-29T21:02:33.342Z,98849.25
2023-03-29T21:04:59.758Z,98865.38
2023-03-29T21:07:26.125Z,98838.94
2023-03-29T21:09:52.538Z,98850.88
2023-03-29T21:12:18.998Z,98836.63
2023-03-29T21:14:45.393Z,98827.56
2023-03-29T21:17:11.756Z,98827.34
2023-03-29T21:19:38.488Z,98824.16
2023-03-29T21:22:05.499Z,98808.78
2023-03-29T21:24:32.144Z,98795.53
2023-03-29T21:26:58.854Z,98793.94
2023-03-29T21:29:25.545Z,98815.28
2023-03-29T21:31:51.905Z,98816.16
2023-03-29T21:34:18.659Z,98816.91
2023-03-29T21:36:45.019Z,98800.91
2023-03-29T21:39:11.400Z,98809.75
2023-03-29T21:41:37.759Z,98799.94
2023-03-29T21:44:04.144Z,98805.16
2023-03-29T21:46:30.563Z,98795.91
2023-03-29T21:48:57.019Z,98796.97
2023-03-29T21:51:23.407Z,98798.47
2023-03-29T21:53:49.780Z,98794.91
2023-03-29T21:56:16.195Z,98804.59
2023-03-29T21:58:42.698Z,98796.78
2023-03-29T22:01:09.169Z,98769.03
2023-03-29T22:03:37.035Z,98786.13
2023-03-29T22:06:06.766Z,98773.72
2023-03-29T22:08:33.804Z,98776.91
2023-03-29T22:11:07.713Z,98759.41
2023-03-29T22:13:34.662Z,98774.56
2023-03-29T22:16:03.074Z,98766.75
2023-03-29T22:18:31.656Z,98765.53
2023-03-29T22:20:58.069Z,98761.66
2023-03-29T22:23:24.417Z,98758.63
2023-03-29T22:25:50.744Z,98737.97
2023-03-29T22:28:17.209Z,98735.31
2023-03-29T22:30:43.563Z,98743.03
2023-03-29T22:33:10.006Z,98744.94
2023-03-29T22:35:36.464Z,98744.81
2023-03-29T22:38:02.841Z,98742.94
2023-03-29T22:40:29.226Z,98732.28
2023-03-29T22:42:55.607Z,98738.06
2023-03-29T22:45:21.993Z,98717.53
2023-03-29T22:47:48.452Z,98711.03
2023-03-29T22:50:14.853Z,98718.00
2023-03-29T22:52:41.175Z,98703.19
2023-03-29T22:55:08.212Z,98707.13
2023-03-29T22:57:34.553Z,98705.69
2023-03-29T23:00:00.942Z,98714.84
2023-03-29T23:02:27.323Z,98706.13
2023-03-29T23:04:53.948Z,98714.53
2023-03-29T23:07:20.387Z,98704.09
2023-03-29T23:09:46.888Z,98707.09
2023-03-29T23:12:13.216Z,98705.16
2023-03-29T23:14:39.548Z,98694.44
2023-03-29T23:17:06.190Z,98686.72
2023-03-29T23:19:32.661Z,98685.94
2023-03-29T23:21:59.080Z,98669.00
2023-03-29T23:24:25.389Z,98667.75
2023-03-29T23:26:51.847Z,98652.56
2023-03-29T23:29:18.164Z,98668.47
2023-03-29T23:31:44.546Z,98663.50
2023-03-29T23:34:10.992Z,98658.03
2023-03-29T23:36:37.495Z,98652.72
2023-03-29T23:39:04.041Z,98645.03
2023-03-29T23:41:30.370Z,98654.47
2023-03-29T23:43:56.703Z,98650.50
2023-03-29T23:46:23.439Z,98647.44
2023-03-29T23:48:50.601Z,98627.16
2023-03-29T23:51:19.762Z,98608.31
2023-03-29T23:53:46.206Z,98625.41
2023-03-29T23:56:12.524Z,98633.63
2023-03-29T23:58:38.828Z,98626.91
